sensor_id;sensor_type;location;lat;lon;timestamp;P1;durP1;ratioP1;P2;durP2;ratioP2
20365;SDS011;10341;49.894;8.822;2022-10-16T00:03:52;2.45;;;2.25;;
20365;SDS011;10341;49.894;8.822;2022-10-16T00:09:11;3.63;;;2.17;;
20365;SDS011;10341;49.894;8.822;2022-10-16T00:14:30;5.32;;;2.00;;
20365;SDS011;10341;49.894;8.822;2022-10-16T00:19:49;2.80;;;1.80;;
20365;SDS011;10341;49.894;8.822;2022-10-16T00:25:09;2.00;;;1.80;;
20365;SDS011;10341;49.894;8.822;2022-10-16T00:30:28;3.28;;;1.83;;
20365;SDS011;10341;49.894;8.822;2022-10-16T00:35:47;2.78;;;1.60;;
20365;SDS011;10341;49.894;8.822;2022-10-16T00:41:07;2.03;;;1.60;;
20365;SDS011;10341;49.894;8.822;2022-10-16T00:46:38;2.97;;;1.42;;
20365;SDS011;10341;49.894;8.822;2022-10-16T00:51:59;3.22;;;1.25;;
20365;SDS011;10341;49.894;8.822;2022-10-16T00:57:18;2.57;;;1.23;;
20365;SDS011;10341;49.894;8.822;2022-10-16T01:02:38;1.08;;;1.00;;
20365;SDS011;10341;49.894;8.822;2022-10-16T01:13:27;1.95;;;1.05;;
20365;SDS011;10341;49.894;8.822;2022-10-16T01:18:58;4.50;;;1.00;;
20365;SDS011;10341;49.894;8.822;2022-10-16T01:24:38;1.80;;;0.75;;
20365;SDS011;10341;49.894;8.822;2022-10-16T01:30:01;1.42;;;0.90;;
20365;SDS011;10341;49.894;8.822;2022-10-16T01:40:50;0.82;;;0.70;;
20365;SDS011;10341;49.894;8.822;2022-10-16T01:46:18;1.45;;;0.80;;
20365;SDS011;10341;49.894;8.822;2022-10-16T01:51:40;2.20;;;1.10;;
20365;SDS011;10341;49.894;8.822;2022-10-16T01:57:04;1.08;;;0.90;;
20365;SDS011;10341;49.894;8.822;2022-10-16T02:02:29;0.63;;;0.60;;
20365;SDS011;10341;49.894;8.822;2022-10-16T02:07:49;1.20;;;1.00;;
20365;SDS011;10341;49.894;8.822;2022-10-16T02:13:10;1.17;;;0.87;;
20365;SDS011;10341;49.894;8.822;2022-10-16T02:18:34;2.25;;;0.90;;
20365;SDS011;10341;49.894;8.822;2022-10-16T02:29:42;0.73;;;0.73;;
20365;SDS011;10341;49.894;8.822;2022-10-16T02:35:10;2.87;;;1.00;;
20365;SDS011;10341;49.894;8.822;2022-10-16T02:40:31;0.98;;;0.88;;
20365;SDS011;10341;49.894;8.822;2022-10-16T02:45:51;1.98;;;1.00;;
20365;SDS011;10341;49.894;8.822;2022-10-16T02:51:10;1.27;;;0.90;;
20365;SDS011;10341;49.894;8.822;2022-10-16T02:56:29;1.23;;;1.13;;
20365;SDS011;10341;49.894;8.822;2022-10-16T03:01:49;1.55;;;1.45;;
20365;SDS011;10341;49.894;8.822;2022-10-16T03:07:09;2.35;;;1.90;;
20365;SDS011;10341;49.894;8.822;2022-10-16T03:12:29;2.60;;;2.40;;
20365;SDS011;10341;49.894;8.822;2022-10-16T03:17:48;2.97;;;2.30;;
20365;SDS011;10341;49.894;8.822;2022-10-16T03:23:08;5.10;;;3.97;;
20365;SDS011;10341;49.894;8.822;2022-10-16T03:28:27;4.80;;;3.03;;
20365;SDS011;10341;49.894;8.822;2022-10-16T03:33:46;5.18;;;4.32;;
20365;SDS011;10341;49.894;8.822;2022-10-16T03:39:06;5.97;;;4.90;;
20365;SDS011;10341;49.894;8.822;2022-10-16T03:44:25;5.13;;;4.63;;
20365;SDS011;10341;49.894;8.822;2022-10-16T03:49:44;4.85;;;4.35;;
20365;SDS011;10341;49.894;8.822;2022-10-16T03:55:03;3.67;;;3.17;;
20365;SDS011;10341;49.894;8.822;2022-10-16T04:00:22;4.72;;;2.88;;
20365;SDS011;10341;49.894;8.822;2022-10-16T04:05:42;6.47;;;2.97;;
20365;SDS011;10341;49.894;8.822;2022-10-16T04:11:01;3.88;;;3.40;;
20365;SDS011;10341;49.894;8.822;2022-10-16T04:16:20;6.78;;;3.50;;
20365;SDS011;10341;49.894;8.822;2022-10-16T04:21:40;4.57;;;3.23;;
20365;SDS011;10341;49.894;8.822;2022-10-16T04:26:59;5.97;;;2.80;;
20365;SDS011;10341;49.894;8.822;2022-10-16T04:32:18;3.30;;;3.00;;
20365;SDS011;10341;49.894;8.822;2022-10-16T04:37:37;2.70;;;2.50;;
20365;SDS011;10341;49.894;8.822;2022-10-16T04:42:56;6.03;;;3.75;;
20365;SDS011;10341;49.894;8.822;2022-10-16T04:48:15;8.60;;;5.45;;
20365;SDS011;10341;49.894;8.822;2022-10-16T04:53:35;6.03;;;5.30;;
20365;SDS011;10341;49.894;8.822;2022-10-16T04:58:55;7.90;;;6.28;;
20365;SDS011;10341;49.894;8.822;2022-10-16T05:04:14;10.35;;;6.68;;
20365;SDS011;10341;49.894;8.822;2022-10-16T05:09:34;7.05;;;5.22;;
20365;SDS011;10341;49.894;8.822;2022-10-16T05:14:54;6.65;;;5.43;;
20365;SDS011;10341;49.894;8.822;2022-10-16T05:20:16;13.88;;;6.70;;
20365;SDS011;10341;49.894;8.822;2022-10-16T05:25:36;7.38;;;5.35;;
20365;SDS011;10341;49.894;8.822;2022-10-16T05:30:55;7.90;;;5.47;;
20365;SDS011;10341;49.894;8.822;2022-10-16T05:36:15;6.18;;;5.28;;
20365;SDS011;10341;49.894;8.822;2022-10-16T05:41:34;6.97;;;5.57;;
20365;SDS011;10341;49.894;8.822;2022-10-16T05:46:54;5.00;;;4.30;;
20365;SDS011;10341;49.894;8.822;2022-10-16T05:52:13;5.40;;;4.53;;
20365;SDS011;10341;49.894;8.822;2022-10-16T05:57:33;4.00;;;3.55;;
20365;SDS011;10341;49.894;8.822;2022-10-16T06:02:52;6.97;;;5.40;;
20365;SDS011;10341;49.894;8.822;2022-10-16T06:08:12;6.53;;;5.82;;
20365;SDS011;10341;49.894;8.822;2022-10-16T06:13:31;8.80;;;5.82;;
20365;SDS011;10341;49.894;8.822;2022-10-16T06:18:51;6.03;;;5.00;;
20365;SDS011;10341;49.894;8.822;2022-10-16T06:24:10;5.25;;;4.75;;
20365;SDS011;10341;49.894;8.822;2022-10-16T06:29:29;6.35;;;5.22;;
20365;SDS011;10341;49.894;8.822;2022-10-16T06:34:49;5.05;;;4.22;;
20365;SDS011;10341;49.894;8.822;2022-10-16T06:40:09;5.22;;;4.28;;
20365;SDS011;10341;49.894;8.822;2022-10-16T06:45:28;7.40;;;4.60;;
20365;SDS011;10341;49.894;8.822;2022-10-16T06:50:57;4.53;;;4.10;;
20365;SDS011;10341;49.894;8.822;2022-10-16T06:56:25;4.07;;;3.63;;
20365;SDS011;10341;49.894;8.822;2022-10-16T07:01:46;5.05;;;3.35;;
20365;SDS011;10341;49.894;8.822;2022-10-16T07:07:05;5.50;;;4.80;;
20365;SDS011;10341;49.894;8.822;2022-10-16T07:12:25;6.30;;;4.65;;
20365;SDS011;10341;49.894;8.822;2022-10-16T07:17:45;8.38;;;4.43;;
20365;SDS011;10341;49.894;8.822;2022-10-16T07:23:04;4.40;;;3.83;;
20365;SDS011;10341;49.894;8.822;2022-10-16T07:28:23;3.90;;;3.50;;
20365;SDS011;10341;49.894;8.822;2022-10-16T07:33:42;3.95;;;2.90;;
20365;SDS011;10341;49.894;8.822;2022-10-16T07:39:03;3.70;;;3.22;;
20365;SDS011;10341;49.894;8.822;2022-10-16T07:44:22;3.53;;;2.63;;
20365;SDS011;10341;49.894;8.822;2022-10-16T07:49:41;6.68;;;2.38;;
20365;SDS011;10341;49.894;8.822;2022-10-16T07:55:01;3.88;;;2.90;;
20365;SDS011;10341;49.894;8.822;2022-10-16T08:00:21;1.98;;;1.67;;
20365;SDS011;10341;49.894;8.822;2022-10-16T08:05:40;3.53;;;1.75;;
20365;SDS011;10341;49.894;8.822;2022-10-16T08:10:59;3.10;;;1.80;;
20365;SDS011;10341;49.894;8.822;2022-10-16T08:16:18;3.75;;;1.90;;
20365;SDS011;10341;49.894;8.822;2022-10-16T08:21:38;2.08;;;1.70;;
20365;SDS011;10341;49.894;8.822;2022-10-16T08:26:57;5.03;;;2.35;;
20365;SDS011;10341;49.894;8.822;2022-10-16T08:32:17;5.93;;;2.10;;
20365;SDS011;10341;49.894;8.822;2022-10-16T08:37:36;1.85;;;1.67;;
20365;SDS011;10341;49.894;8.822;2022-10-16T08:43:15;1.77;;;1.67;;
20365;SDS011;10341;49.894;8.822;2022-10-16T08:54:06;2.20;;;1.52;;
20365;SDS011;10341;49.894;8.822;2022-10-16T08:59:41;5.85;;;1.80;;
20365;SDS011;10341;49.894;8.822;2022-10-16T09:10:56;3.17;;;1.80;;
20365;SDS011;10341;49.894;8.822;2022-10-16T09:16:23;5.03;;;1.90;;
20365;SDS011;10341;49.894;8.822;2022-10-16T09:21:48;4.40;;;2.70;;
20365;SDS011;10341;49.894;8.822;2022-10-16T09:27:11;2.75;;;2.20;;
20365;SDS011;10341;49.894;8.822;2022-10-16T09:32:32;4.72;;;2.40;;
20365;SDS011;10341;49.894;8.822;2022-10-16T09:37:52;2.95;;;1.63;;
20365;SDS011;10341;49.894;8.822;2022-10-16T09:43:20;5.20;;;1.60;;
20365;SDS011;10341;49.894;8.822;2022-10-16T09:49:00;4.85;;;1.10;;
20365;SDS011;10341;49.894;8.822;2022-10-16T09:54:21;1.48;;;1.00;;
20365;SDS011;10341;49.894;8.822;2022-10-16T09:59:48;3.53;;;1.20;;
20365;SDS011;10341;49.894;8.822;2022-10-16T10:05:17;1.23;;;1.02;;
20365;SDS011;10341;49.894;8.822;2022-10-16T10:10:41;0.75;;;0.73;;
20365;SDS011;10341;49.894;8.822;2022-10-16T10:16:02;0.80;;;0.80;;
20365;SDS011;10341;49.894;8.822;2022-10-16T10:21:21;1.27;;;0.93;;
20365;SDS011;10341;49.894;8.822;2022-10-16T10:26:41;1.17;;;0.82;;
20365;SDS011;10341;49.894;8.822;2022-10-16T10:32:16;1.63;;;0.90;;
20365;SDS011;10341;49.894;8.822;2022-10-16T11:06:17;0.75;;;0.75;;
20365;SDS011;10341;49.894;8.822;2022-10-16T11:28:51;3.78;;;1.00;;
20365;SDS011;10341;49.894;8.822;2022-10-16T11:40:25;1.55;;;0.90;;
20365;SDS011;10341;49.894;8.822;2022-10-16T11:45:49;1.10;;;0.75;;
20365;SDS011;10341;49.894;8.822;2022-10-16T11:56:41;1.15;;;0.82;;
20365;SDS011;10341;49.894;8.822;2022-10-16T12:07:39;1.10;;;0.77;;
20365;SDS011;10341;49.894;8.822;2022-10-16T12:18:49;2.40;;;0.90;;
20365;SDS011;10341;49.894;8.822;2022-10-16T12:24:22;3.50;;;1.35;;
20365;SDS011;10341;49.894;8.822;2022-10-16T12:29:54;3.78;;;1.20;;
20365;SDS011;10341;49.894;8.822;2022-10-16T12:35:17;3.03;;;1.80;;
20365;SDS011;10341;49.894;8.822;2022-10-16T12:40:42;1.88;;;1.10;;
20365;SDS011;10341;49.894;8.822;2022-10-16T13:08:04;2.00;;;1.15;;
20365;SDS011;10341;49.894;8.822;2022-10-16T13:19:29;2.33;;;1.35;;
20365;SDS011;10341;49.894;8.822;2022-10-16T13:25:17;1.10;;;1.00;;
20365;SDS011;10341;49.894;8.822;2022-10-16T13:30:52;4.82;;;1.40;;
20365;SDS011;10341;49.894;8.822;2022-10-16T13:36:18;2.28;;;1.20;;
20365;SDS011;10341;49.894;8.822;2022-10-16T13:47:26;2.95;;;1.40;;
20365;SDS011;10341;49.894;8.822;2022-10-16T13:52:47;2.47;;;1.60;;
20365;SDS011;10341;49.894;8.822;2022-10-16T13:58:10;2.22;;;1.60;;
20365;SDS011;10341;49.894;8.822;2022-10-16T14:03:32;1.40;;;1.30;;
20365;SDS011;10341;49.894;8.822;2022-10-16T14:08:58;4.15;;;1.48;;
20365;SDS011;10341;49.894;8.822;2022-10-16T14:19:46;4.43;;;1.55;;
20365;SDS011;10341;49.894;8.822;2022-10-16T14:25:40;2.50;;;1.70;;
20365;SDS011;10341;49.894;8.822;2022-10-16T14:30:56;4.05;;;1.92;;
20365;SDS011;10341;49.894;8.822;2022-10-16T14:36:18;2.55;;;1.50;;
20365;SDS011;10341;49.894;8.822;2022-10-16T14:41:44;2.17;;;1.40;;
20365;SDS011;10341;49.894;8.822;2022-10-16T14:47:07;2.50;;;1.70;;
20365;SDS011;10341;49.894;8.822;2022-10-16T14:52:28;2.65;;;1.98;;
20365;SDS011;10341;49.894;8.822;2022-10-16T14:57:48;4.40;;;1.80;;
20365;SDS011;10341;49.894;8.822;2022-10-16T15:03:07;4.43;;;2.33;;
20365;SDS011;10341;49.894;8.822;2022-10-16T15:08:27;4.03;;;2.47;;
20365;SDS011;10341;49.894;8.822;2022-10-16T15:19:06;4.95;;;2.17;;
20365;SDS011;10341;49.894;8.822;2022-10-16T15:24:29;3.70;;;2.00;;
20365;SDS011;10341;49.894;8.822;2022-10-16T15:35:11;2.22;;;1.90;;
20365;SDS011;10341;49.894;8.822;2022-10-16T15:40:31;3.23;;;2.13;;
20365;SDS011;10341;49.894;8.822;2022-10-16T15:46:01;7.07;;;4.90;;
20365;SDS011;10341;49.894;8.822;2022-10-16T15:51:23;4.53;;;3.17;;
20365;SDS011;10341;49.894;8.822;2022-10-16T15:56:43;5.10;;;4.00;;
20365;SDS011;10341;49.894;8.822;2022-10-16T16:02:04;9.25;;;6.07;;
20365;SDS011;10341;49.894;8.822;2022-10-16T16:07:23;8.52;;;7.65;;
20365;SDS011;10341;49.894;8.822;2022-10-16T16:12:43;10.88;;;6.45;;
20365;SDS011;10341;49.894;8.822;2022-10-16T16:18:08;11.52;;;7.70;;
20365;SDS011;10341;49.894;8.822;2022-10-16T16:28:47;8.55;;;6.47;;
20365;SDS011;10341;49.894;8.822;2022-10-16T16:34:07;5.32;;;4.10;;
20365;SDS011;10341;49.894;8.822;2022-10-16T16:39:26;5.83;;;3.23;;
20365;SDS011;10341;49.894;8.822;2022-10-16T16:44:47;3.85;;;3.00;;
20365;SDS011;10341;49.894;8.822;2022-10-16T16:50:06;5.50;;;3.70;;
20365;SDS011;10341;49.894;8.822;2022-10-16T16:55:26;5.00;;;3.20;;
20365;SDS011;10341;49.894;8.822;2022-10-16T17:00:46;7.37;;;4.47;;
20365;SDS011;10341;49.894;8.822;2022-10-16T17:06:06;10.20;;;6.35;;
20365;SDS011;10341;49.894;8.822;2022-10-16T17:11:26;6.70;;;4.55;;
20365;SDS011;10341;49.894;8.822;2022-10-16T17:16:46;4.85;;;3.55;;
20365;SDS011;10341;49.894;8.822;2022-10-16T17:22:07;5.88;;;3.00;;
20365;SDS011;10341;49.894;8.822;2022-10-16T17:27:27;5.93;;;2.90;;
20365;SDS011;10341;49.894;8.822;2022-10-16T17:32:46;3.20;;;2.30;;
20365;SDS011;10341;49.894;8.822;2022-10-16T17:38:06;4.03;;;2.13;;
20365;SDS011;10341;49.894;8.822;2022-10-16T17:43:26;2.97;;;2.33;;
20365;SDS011;10341;49.894;8.822;2022-10-16T17:48:46;6.82;;;3.30;;
20365;SDS011;10341;49.894;8.822;2022-10-16T17:54:07;4.00;;;3.13;;
20365;SDS011;10341;49.894;8.822;2022-10-16T17:59:32;3.75;;;3.10;;
20365;SDS011;10341;49.894;8.822;2022-10-16T18:04:51;3.50;;;2.92;;
20365;SDS011;10341;49.894;8.822;2022-10-16T18:10:11;5.57;;;3.50;;
20365;SDS011;10341;49.894;8.822;2022-10-16T18:15:30;4.00;;;3.33;;
20365;SDS011;10341;49.894;8.822;2022-10-16T18:20:59;3.78;;;3.20;;
20365;SDS011;10341;49.894;8.822;2022-10-16T18:31:39;2.65;;;2.33;;
20365;SDS011;10341;49.894;8.822;2022-10-16T18:36:59;5.32;;;1.92;;
20365;SDS011;10341;49.894;8.822;2022-10-16T18:42:18;1.70;;;1.60;;
20365;SDS011;10341;49.894;8.822;2022-10-16T18:47:37;2.65;;;1.80;;
20365;SDS011;10341;49.894;8.822;2022-10-16T18:52:57;4.05;;;1.77;;
20365;SDS011;10341;49.894;8.822;2022-10-16T18:58:16;6.35;;;3.55;;
20365;SDS011;10341;49.894;8.822;2022-10-16T19:03:36;5.20;;;2.72;;
20365;SDS011;10341;49.894;8.822;2022-10-16T19:08:56;3.63;;;1.55;;
20365;SDS011;10341;49.894;8.822;2022-10-16T19:14:16;1.77;;;1.30;;
20365;SDS011;10341;49.894;8.822;2022-10-16T19:19:36;1.67;;;1.40;;
20365;SDS011;10341;49.894;8.822;2022-10-16T19:30:16;1.77;;;1.65;;
20365;SDS011;10341;49.894;8.822;2022-10-16T19:35:36;4.47;;;1.60;;
20365;SDS011;10341;49.894;8.822;2022-10-16T19:41:02;2.15;;;1.23;;
20365;SDS011;10341;49.894;8.822;2022-10-16T19:46:41;3.60;;;1.90;;
20365;SDS011;10341;49.894;8.822;2022-10-16T19:52:01;3.85;;;2.42;;
20365;SDS011;10341;49.894;8.822;2022-10-16T19:57:21;14.10;;;7.88;;
20365;SDS011;10341;49.894;8.822;2022-10-16T20:08:00;3.90;;;2.67;;
20365;SDS011;10341;49.894;8.822;2022-10-16T20:13:20;3.75;;;2.22;;
20365;SDS011;10341;49.894;8.822;2022-10-16T20:18:40;5.45;;;3.13;;
20365;SDS011;10341;49.894;8.822;2022-10-16T20:24:00;5.80;;;2.80;;
20365;SDS011;10341;49.894;8.822;2022-10-16T20:29:22;4.40;;;2.10;;
20365;SDS011;10341;49.894;8.822;2022-10-16T20:34:41;4.28;;;2.00;;
20365;SDS011;10341;49.894;8.822;2022-10-16T20:40:04;5.18;;;2.72;;
20365;SDS011;10341;49.894;8.822;2022-10-16T20:50:43;2.17;;;1.70;;
20365;SDS011;10341;49.894;8.822;2022-10-16T20:56:02;3.63;;;2.00;;
20365;SDS011;10341;49.894;8.822;2022-10-16T21:12:03;7.38;;;4.28;;
20365;SDS011;10341;49.894;8.822;2022-10-16T21:17:22;3.97;;;2.92;;
20365;SDS011;10341;49.894;8.822;2022-10-16T21:22:41;6.90;;;2.78;;
20365;SDS011;10341;49.894;8.822;2022-10-16T21:28:01;6.38;;;2.90;;
20365;SDS011;10341;49.894;8.822;2022-10-16T21:33:20;4.13;;;2.38;;
20365;SDS011;10341;49.894;8.822;2022-10-16T21:38:40;3.03;;;2.22;;
20365;SDS011;10341;49.894;8.822;2022-10-16T21:49:20;2.05;;;1.85;;
20365;SDS011;10341;49.894;8.822;2022-10-16T21:54:39;1.65;;;1.55;;
20365;SDS011;10341;49.894;8.822;2022-10-16T21:59:58;1.70;;;1.60;;
20365;SDS011;10341;49.894;8.822;2022-10-16T22:05:17;3.13;;;1.83;;
20365;SDS011;10341;49.894;8.822;2022-10-16T22:10:36;3.30;;;2.20;;
20365;SDS011;10341;49.894;8.822;2022-10-16T22:15:56;6.00;;;2.30;;
20365;SDS011;10341;49.894;8.822;2022-10-16T22:21:15;3.05;;;2.05;;
20365;SDS011;10341;49.894;8.822;2022-10-16T22:26:34;3.20;;;2.15;;
20365;SDS011;10341;49.894;8.822;2022-10-16T22:37:13;4.93;;;2.33;;
20365;SDS011;10341;49.894;8.822;2022-10-16T22:42:33;3.90;;;2.38;;
20365;SDS011;10341;49.894;8.822;2022-10-16T22:47:52;4.35;;;1.95;;
20365;SDS011;10341;49.894;8.822;2022-10-16T22:53:12;5.45;;;2.13;;
20365;SDS011;10341;49.894;8.822;2022-10-16T22:58:32;6.68;;;3.10;;
20365;SDS011;10341;49.894;8.822;2022-10-16T23:03:51;7.05;;;2.70;;
20365;SDS011;10341;49.894;8.822;2022-10-16T23:09:11;5.43;;;2.83;;
20365;SDS011;10341;49.894;8.822;2022-10-16T23:14:30;3.03;;;2.30;;
20365;SDS011;10341;49.894;8.822;2022-10-16T23:19:49;3.73;;;2.23;;
20365;SDS011;10341;49.894;8.822;2022-10-16T23:25:08;2.00;;;1.70;;
20365;SDS011;10341;49.894;8.822;2022-10-16T23:30:27;5.47;;;2.55;;
20365;SDS011;10341;49.894;8.822;2022-10-16T23:35:47;2.25;;;2.05;;
20365;SDS011;10341;49.894;8.822;2022-10-16T23:41:06;8.77;;;2.80;;
20365;SDS011;10341;49.894;8.822;2022-10-16T23:46:26;3.35;;;2.47;;
20365;SDS011;10341;49.894;8.822;2022-10-16T23:51:46;7.07;;;2.80;;
20365;SDS011;10341;49.894;8.822;2022-10-16T23:57:05;2.42;;;2.20;;
